Time;durP1;ratioP1;P1;durP2;ratioP2;P2;SDS_P1;SDS_P2;PMS_P1;PMS_P2;Temp;Humidity;BMP_temperature;BMP_pressure;BME280_temperature;BME280_humidity;BME280_pressure;Samples;Min_cycle;Max_cycle;Signal;HPM_P1;HPM_P2
2021/12/17 00:05:00;;;;;;;4.55;1.27;;;20.60;61.50;;;;;;5019206;28;20202;-42
2021/12/17 00:07:32;;;;;;;2.75;0.70;;;20.60;61.40;;;;;;5042462;28;20226;-47
2021/12/17 00:10:05;;;;;;;2.63;1.05;;;20.60;62.20;;;;;;5041728;28;20296;-42
2021/12/17 00:12:37;;;;;;;3.05;1.08;;;20.60;61.30;;;;;;5045897;28;20330;-46
2021/12/17 00:15:09;;;;;;;1.85;0.93;;;20.60;61.20;;;;;;5040624;28;20278;-44
2021/12/17 00:17:50;;;;;;;2.50;1.20;;;20.70;61.30;;;;;;5038947;28;20231;-41
2021/12/17 00:48:39;;;;;;;2.55;1.65;;;20.60;61.00;;;;;;5042718;28;20365;-50
2021/12/17 00:51:46;;;;;;;2.50;1.20;;;20.70;61.10;;;;;;5041758;28;20303;-49
2021/12/17 00:54:21;;;;;;;1.55;0.90;;;20.70;61.10;;;;;;5038989;28;20231;-49
2021/12/17 00:56:53;;;;;;;1.65;0.73;;;20.70;61.10;;;;;;5043379;28;20671;-40
2021/12/17 00:59:24;;;;;;;2.60;0.80;;;20.70;61.10;;;;;;5045529;28;20294;-46
2021/12/17 01:01:58;;;;;;;3.65;0.95;;;20.70;61.10;;;;;;5041994;28;20290;-39
2021/12/17 01:04:29;;;;;;;2.80;1.10;;;20.70;61.10;;;;;;5042001;28;20239;-48
2021/12/17 01:06:59;;;;;;;2.35;1.20;;;20.70;61.10;;;;;;5045183;28;20637;-55
2021/12/17 01:09:30;;;;;;;2.65;1.17;;;20.70;61.10;;;;;;5044264;28;20298;-53
2021/12/17 01:12:01;;;;;;;1.83;0.93;;;20.70;61.00;;;;;;5041196;28;20223;-56
2021/12/17 01:14:33;;;;;;;3.22;0.90;;;20.70;61.00;;;;;;5042294;28;20317;-48
2021/12/17 01:17:06;;;;;;;5.22;1.20;;;20.70;61.00;;;;;;5046168;28;20708;-39
2021/12/17 01:20:08;;;;;;;1.13;0.90;;;20.70;60.90;;;;;;5047283;28;20294;-42
2021/12/17 01:22:54;;;;;;;3.33;1.05;;;20.70;60.90;;;;;;5046962;28;20196;-48
2021/12/17 01:25:40;;;;;;;2.88;1.27;;;20.80;60.90;;;;;;5045665;28;20286;-44
2021/12/17 01:36:36;;;;;;;2.78;1.05;;;20.80;63.10;;;;;;5045526;28;20560;-45
2021/12/17 01:42:06;;;;;;;1.95;1.00;;;20.90;62.80;;;;;;5043528;28;20713;-48
2021/12/17 01:44:38;;;;;;;1.40;0.90;;;20.80;62.30;;;;;;5042864;28;20196;-48
2021/12/17 01:47:11;;;;;;;3.67;1.17;;;20.80;61.90;;;;;;5046964;28;21634;-42
2021/12/17 02:00:55;;;;;;;1.50;0.75;;;20.80;60.80;;;;;;5048503;28;20282;-41
2021/12/17 02:03:26;;;;;;;2.75;1.15;;;20.80;60.70;;;;;;5047171;28;20279;-43
2021/12/17 02:05:59;;;;;;;1.20;0.68;;;20.80;60.70;;;;;;5044831;28;20269;-40
2021/12/17 02:08:30;;;;;;;1.45;0.88;;;20.80;60.70;;;;;;5043467;28;20216;-41
2021/12/17 02:11:41;;;;;;;1.73;0.70;;;20.80;61.50;;;;;;5045306;28;20298;-40
2021/12/17 02:20:12;;;;;;;2.35;0.80;;;20.90;60.80;;;;;;5001879;28;20224;-40
2021/12/17 02:31:25;;;;;;;1.75;1.05;;;20.90;61.10;;;;;;5039518;28;20249;-39
2021/12/17 02:33:57;;;;;;;1.95;1.02;;;20.90;61.10;;;;;;5046631;28;20230;-40
2021/12/17 02:36:30;;;;;;;2.40;0.90;;;20.90;61.20;;;;;;5040231;28;20655;-43
2021/12/17 02:39:24;;;;;;;2.15;1.13;;;21.00;61.30;;;;;;5041922;28;20306;-44
2021/12/17 02:47:27;;;;;;;3.10;1.13;;;21.00;61.30;;;;;;5047771;28;21776;-41
2021/12/17 02:49:58;;;;;;;4.50;1.10;;;21.00;61.30;;;;;;5042970;28;20317;-41
2021/12/17 02:52:31;;;;;;;3.47;1.10;;;21.00;61.30;;;;;;5040967;28;20887;-40
2021/12/17 02:55:05;;;;;;;1.95;0.82;;;21.10;61.30;;;;;;5044501;28;20281;-43
2021/12/17 02:57:36;;;;;;;3.83;1.27;;;21.00;61.10;;;;;;5046418;28;20279;-45
2021/12/17 03:00:09;;;;;;;3.88;1.60;;;21.10;61.10;;;;;;5044267;28;20298;-54
2021/12/17 03:02:40;;;;;;;3.50;1.20;;;21.10;61.10;;;;;;5043442;28;20283;-49
2021/12/17 03:05:12;;;;;;;2.97;1.10;;;21.10;61.00;;;;;;5039138;28;20298;-40
2021/12/17 03:07:46;;;;;;;2.50;1.30;;;21.10;61.00;;;;;;5046511;28;20246;-43
2021/12/17 03:10:19;;;;;;;1.45;0.80;;;21.10;60.90;;;;;;5043991;28;20201;-42
2021/12/17 03:12:52;;;;;;;1.92;1.20;;;21.10;61.00;;;;;;5042404;28;20642;-39
2021/12/17 03:15:32;;;;;;;2.38;1.00;;;21.10;61.00;;;;;;5041391;28;20231;-40
2021/12/17 03:23:39;;;;;;;2.78;1.17;;;21.10;61.00;;;;;;5043286;28;20278;-40
2021/12/17 03:26:13;;;;;;;2.90;1.30;;;21.10;60.90;;;;;;5040396;28;20207;-41
2021/12/17 03:28:45;;;;;;;2.33;1.20;;;21.10;60.90;;;;;;5039983;28;20331;-42
2021/12/17 03:31:16;;;;;;;3.00;1.08;;;21.10;60.80;;;;;;5046312;28;20203;-40
2021/12/17 03:33:49;;;;;;;3.08;1.13;;;21.20;60.90;;;;;;5042391;28;20242;-40
2021/12/17 03:36:20;;;;;;;2.10;1.10;;;21.20;60.90;;;;;;5041353;28;20213;-40
2021/12/17 03:38:52;;;;;;;2.38;1.20;;;21.20;60.90;;;;;;5042922;28;20299;-40
2021/12/17 03:41:28;;;;;;;2.67;1.10;;;21.20;60.90;;;;;;5045048;28;20630;-41
2021/12/17 03:43:59;;;;;;;2.58;1.08;;;21.20;60.90;;;;;;5043414;28;20722;-40
2021/12/17 03:46:29;;;;;;;3.80;1.10;;;21.30;61.00;;;;;;5041920;28;20904;-48
2021/12/17 03:49:00;;;;;;;4.80;1.65;;;21.30;61.00;;;;;;5042425;28;20397;-41
2021/12/17 03:51:30;;;;;;;2.83;1.25;;;21.30;60.90;;;;;;5046214;28;20290;-39
2021/12/17 03:54:02;;;;;;;2.17;1.20;;;21.30;60.90;;;;;;5043471;28;20310;-43
2021/12/17 03:56:34;;;;;;;2.70;1.20;;;21.40;61.00;;;;;;5040133;28;20282;-49
2021/12/17 03:59:10;;;;;;;2.00;1.10;;;21.40;61.00;;;;;;5042102;28;20306;-44
2021/12/17 04:01:41;;;;;;;1.65;1.27;;;21.40;61.00;;;;;;5043094;28;20222;-41
2021/12/17 04:04:12;;;;;;;2.45;1.20;;;21.50;61.10;;;;;;5043071;28;20278;-40
2021/12/17 04:06:42;;;;;;;4.18;1.27;;;21.50;61.00;;;;;;5042837;28;20286;-39
2021/12/17 04:09:13;;;;;;;2.53;1.40;;;21.50;60.90;;;;;;5044236;28;20310;-48
2021/12/17 04:11:45;;;;;;;2.90;1.13;;;21.60;60.80;;;;;;5043619;28;20228;-40
2021/12/17 04:14:16;;;;;;;1.95;1.10;;;21.60;60.70;;;;;;5042806;28;20305;-40
2021/12/17 04:16:46;;;;;;;2.30;1.40;;;21.70;60.80;;;;;;5042455;28;20234;-40
2021/12/17 04:19:17;;;;;;;2.70;1.25;;;21.60;60.70;;;;;;5040705;28;20314;-40
2021/12/17 04:21:48;;;;;;;3.53;1.27;;;21.70;60.50;;;;;;5043691;28;20289;-40
2021/12/17 04:24:18;;;;;;;4.07;1.42;;;21.70;60.50;;;;;;5044212;28;20651;-42
2021/12/17 04:26:50;;;;;;;4.05;1.40;;;21.70;60.10;;;;;;5041111;28;20703;-40
2021/12/17 04:29:22;;;;;;;2.00;1.20;;;21.70;60.00;;;;;;5040522;28;20307;-43
2021/12/17 04:31:54;;;;;;;2.35;1.05;;;21.80;60.10;;;;;;5046406;28;20195;-40
2021/12/17 04:34:25;;;;;;;3.83;1.15;;;21.80;59.90;;;;;;5042471;28;20215;-41
2021/12/17 04:36:56;;;;;;;3.33;1.02;;;21.80;59.70;;;;;;5039717;28;20290;-43
2021/12/17 04:39:27;;;;;;;2.13;1.05;;;21.80;59.70;;;;;;5042143;28;20294;-46
2021/12/17 04:42:04;;;;;;;2.40;1.05;;;21.80;59.60;;;;;;5045796;28;20703;-40
2021/12/17 04:44:37;;;;;;;1.88;1.00;;;21.80;59.60;;;;;;5043911;28;20193;-51
2021/12/17 04:58:12;;;;;;;2.08;1.02;;;22.00;59.70;;;;;;5047198;28;20213;-45
2021/12/17 05:00:42;;;;;;;2.13;1.15;;;22.00;59.60;;;;;;5044777;28;20470;-40
2021/12/17 05:03:13;;;;;;;2.10;0.98;;;22.00;59.70;;;;;;5046202;28;20303;-39
2021/12/17 05:05:43;;;;;;;2.80;1.17;;;22.10;59.60;;;;;;5050177;28;20893;-40
2021/12/17 05:08:17;;;;;;;2.78;1.08;;;22.10;59.50;;;;;;5047399;28;20276;-45
2021/12/17 05:11:12;;;;;;;2.42;0.90;;;22.10;59.40;;;;;;5043159;28;20944;-50
2021/12/17 05:19:26;;;;;;;1.42;0.90;;;22.20;59.10;;;;;;5046330;28;20269;-42
2021/12/17 05:21:57;;;;;;;1.60;1.10;;;22.20;59.10;;;;;;5048875;28;20280;-42
2021/12/17 05:24:28;;;;;;;1.67;0.95;;;22.20;59.10;;;;;;5044799;28;20736;-42
2021/12/17 05:26:58;;;;;;;2.72;1.17;;;22.30;59.00;;;;;;5034426;28;20283;-43
2021/12/17 05:29:31;;;;;;;2.13;1.00;;;22.30;59.00;;;;;;5047457;28;20294;-45
2021/12/17 05:32:01;;;;;;;2.00;0.85;;;22.30;58.90;;;;;;5047381;28;20275;-50
2021/12/17 05:34:32;;;;;;;1.80;1.13;;;22.30;58.80;;;;;;5044098;28;20218;-40
2021/12/17 05:37:02;;;;;;;1.73;0.98;;;22.30;58.80;;;;;;5043816;28;20283;-42
2021/12/17 05:39:33;;;;;;;1.20;0.90;;;22.30;58.70;;;;;;5046613;28;20295;-41
2021/12/17 05:42:04;;;;;;;3.20;1.10;;;22.40;58.70;;;;;;5047611;28;20294;-41
2021/12/17 05:44:36;;;;;;;1.58;0.70;;;22.40;58.70;;;;;;5044869;28;20302;-50
2021/12/17 05:47:07;;;;;;;2.83;1.00;;;22.40;58.80;;;;;;5043160;28;21697;-40
2021/12/17 05:49:37;;;;;;;1.98;1.10;;;22.40;58.80;;;;;;5046495;28;20316;-47
2021/12/17 05:52:08;;;;;;;1.80;0.95;;;22.40;58.60;;;;;;5046735;28;20302;-42
2021/12/17 05:54:39;;;;;;;0.70;0.70;;;22.50;58.50;;;;;;5042057;28;20222;-40
2021/12/17 05:57:10;;;;;;;1.20;0.80;;;22.50;58.40;;;;;;5034178;28;20311;-42
2021/12/17 05:59:42;;;;;;;1.63;0.90;;;22.50;58.40;;;;;;5045584;28;20299;-51
2021/12/17 06:02:14;;;;;;;1.33;0.80;;;22.50;58.40;;;;;;5045808;28;20227;-40
2021/12/17 06:04:44;;;;;;;1.33;0.93;;;22.50;58.40;;;;;;5043297;28;20196;-40
2021/12/17 06:07:15;;;;;;;1.48;1.00;;;22.60;58.30;;;;;;5041154;28;20199;-54
2021/12/17 06:09:46;;;;;;;2.60;0.93;;;22.50;58.20;;;;;;5046597;28;20310;-40
2021/12/17 06:12:17;;;;;;;1.00;0.90;;;22.60;58.20;;;;;;5046766;28;20670;-41
2021/12/17 06:14:49;;;;;;;1.27;0.80;;;22.60;58.20;;;;;;5042859;28;20761;-47
2021/12/17 06:17:19;;;;;;;1.17;0.77;;;22.60;58.20;;;;;;5044054;28;20664;-46
2021/12/17 06:19:50;;;;;;;1.42;0.70;;;22.60;58.10;;;;;;5045750;28;20207;-56
2021/12/17 06:22:21;;;;;;;1.08;0.90;;;22.60;58.20;;;;;;5045117;28;20194;-42
2021/12/17 06:24:52;;;;;;;1.50;0.70;;;22.60;58.10;;;;;;5043820;28;20286;-43
2021/12/17 06:27:24;;;;;;;1.45;0.80;;;22.60;57.90;;;;;;5042373;28;20214;-44
2021/12/17 06:29:57;;;;;;;1.27;0.70;;;22.70;57.80;;;;;;5041048;28;20216;-44
2021/12/17 06:32:28;;;;;;;0.60;0.60;;;22.70;57.70;;;;;;5046982;28;20196;-43
2021/12/17 06:34:59;;;;;;;1.30;0.80;;;22.70;57.50;;;;;;5043177;28;20306;-53
2021/12/17 06:37:29;;;;;;;1.77;0.90;;;22.70;57.50;;;;;;5042421;28;20739;-44
2021/12/17 06:40:00;;;;;;;1.00;0.90;;;22.70;57.50;;;;;;5046269;28;20228;-61
2021/12/17 06:42:30;;;;;;;2.45;0.80;;;22.80;57.50;;;;;;5045910;28;20203;-46
2021/12/17 06:45:07;;;;;;;1.92;0.70;;;22.80;57.50;;;;;;5040645;28;20200;-54
2021/12/17 06:47:39;;;;;;;1.55;0.82;;;22.80;57.30;;;;;;5042743;28;20666;-47
2021/12/17 06:56:22;;;;;;;1.17;0.90;;;22.80;57.20;;;;;;5013489;28;20368;-56
2021/12/17 06:58:55;;;;;;;1.35;1.00;;;22.80;57.30;;;;;;5037289;28;20211;-43
2021/12/17 07:10:15;;;;;;;0.95;0.80;;;22.80;57.10;;;;;;5036441;28;20215;-48
2021/12/17 07:21:38;;;;;;;1.00;0.70;;;22.80;57.10;;;;;;5032858;28;20346;-48
2021/12/17 07:32:45;;;;;;;2.33;0.82;;;22.80;57.00;;;;;;5040320;28;20257;-44
2021/12/17 07:40:55;;;;;;;1.27;0.80;;;22.60;56.90;;;;;;5044189;28;20290;-54
2021/12/17 07:43:37;;;;;;;1.42;0.73;;;22.60;56.90;;;;;;5046270;28;20278;-40
2021/12/17 07:46:09;;;;;;;1.77;0.80;;;22.60;57.00;;;;;;5042499;28;20326;-43
2021/12/17 07:48:40;;;;;;;0.80;0.75;;;22.60;57.10;;;;;;5041801;28;20310;-39
2021/12/17 07:51:15;;;;;;;1.38;0.60;;;22.60;57.00;;;;;;5043122;28;20313;-40
2021/12/17 07:53:45;;;;;;;0.98;0.70;;;22.60;57.00;;;;;;5046005;28;20281;-46
2021/12/17 07:56:18;;;;;;;0.65;0.60;;;22.50;57.00;;;;;;5044050;28;20310;-48
2021/12/17 07:58:49;;;;;;;1.20;0.75;;;22.50;57.00;;;;;;5036972;28;20299;-40
2021/12/17 08:01:19;;;;;;;1.45;0.70;;;22.50;57.10;;;;;;5042901;28;20279;-42
2021/12/17 08:03:50;;;;;;;1.00;0.90;;;22.50;57.20;;;;;;5043389;28;20714;-41
2021/12/17 08:06:23;;;;;;;1.30;0.88;;;22.50;57.20;;;;;;5042476;28;20247;-41
2021/12/17 08:08:54;;;;;;;0.90;0.60;;;22.50;57.20;;;;;;5040395;28;20640;-40
2021/12/17 08:11:24;;;;;;;0.88;0.70;;;22.40;57.20;;;;;;5041919;28;20211;-47
2021/12/17 08:13:56;;;;;;;1.83;0.75;;;22.40;57.20;;;;;;5046024;28;20230;-38
2021/12/17 08:16:36;;;;;;;0.70;0.70;;;22.40;57.20;;;;;;5042653;28;20223;-51
2021/12/17 08:23:19;;;;;;;2.17;0.70;;;22.40;57.30;;;;;;5039389;28;20227;-45
2021/12/17 08:25:08;;;;;;;1.75;0.73;;;22.40;57.30;;;;;;5045912;28;20738;-39
2021/12/17 08:27:49;;;;;;;1.95;0.70;;;22.30;57.80;;;;;;5046408;28;20226;-48
2021/12/17 08:30:27;;;;;;;1.92;0.60;;;22.30;57.20;;;;;;5046757;28;20195;-45
2021/12/17 08:32:58;;;;;;;1.92;0.90;;;22.30;57.20;;;;;;5044651;28;20199;-39
2021/12/17 08:35:28;;;;;;;1.10;0.60;;;22.30;57.30;;;;;;5047157;28;20229;-48
2021/12/17 08:38:03;;;;;;;0.95;0.80;;;22.20;57.30;;;;;;5049230;28;20663;-43
2021/12/17 08:40:34;;;;;;;1.42;0.80;;;22.20;57.30;;;;;;5049384;28;20187;-40
2021/12/17 08:43:05;;;;;;;0.70;0.63;;;22.20;57.40;;;;;;5043507;28;20292;-42
2021/12/17 08:45:35;;;;;;;1.33;0.80;;;22.10;57.40;;;;;;5046449;28;20286;-41
2021/12/17 08:48:06;;;;;;;0.95;0.60;;;22.10;57.40;;;;;;5048240;28;20725;-42
2021/12/17 08:50:37;;;;;;;1.33;0.68;;;22.10;57.30;;;;;;5046462;28;20206;-44
2021/12/17 08:53:09;;;;;;;1.23;0.70;;;22.10;57.30;;;;;;5044907;28;20288;-40
2021/12/17 08:55:40;;;;;;;1.25;0.75;;;22.10;57.40;;;;;;5045495;28;20346;-43
2021/12/17 08:58:13;;;;;;;2.22;1.00;;;22.10;57.40;;;;;;5047694;28;20627;-48
2021/12/17 09:00:45;;;;;;;1.73;0.60;;;22.00;57.50;;;;;;5047837;28;20298;-47
2021/12/17 09:03:15;;;;;;;1.85;0.98;;;22.00;57.40;;;;;;5044064;28;20286;-47
2021/12/17 09:05:49;;;;;;;1.27;0.70;;;22.00;57.50;;;;;;5044656;28;20196;-47
2021/12/17 09:08:21;;;;;;;2.15;1.00;;;22.00;57.50;;;;;;5046495;28;20303;-47
2021/12/17 09:10:55;;;;;;;1.77;0.77;;;21.90;57.50;;;;;;5047012;28;20196;-46
2021/12/17 09:13:27;;;;;;;0.73;0.65;;;22.00;57.50;;;;;;5044756;28;20214;-39
2021/12/17 09:15:58;;;;;;;1.50;0.75;;;21.90;57.50;;;;;;5044373;28;20224;-43
2021/12/17 09:18:29;;;;;;;1.35;0.70;;;21.90;57.50;;;;;;5046355;28;20311;-39
2021/12/17 09:21:00;;;;;;;1.88;0.73;;;21.90;57.60;;;;;;5048131;28;20619;-50
2021/12/17 09:23:32;;;;;;;1.92;1.08;;;21.80;57.60;;;;;;5039119;28;20292;-39
2021/12/17 09:26:02;;;;;;;4.28;1.30;;;21.80;57.60;;;;;;5042125;28;20280;-39
2021/12/17 09:28:33;;;;;;;5.25;1.33;;;21.80;57.70;;;;;;5046399;28;20950;-39
2021/12/17 09:31:05;;;;;;;3.63;1.27;;;21.80;57.70;;;;;;5047255;28;20278;-41
2021/12/17 09:33:36;;;;;;;2.83;1.20;;;21.80;57.80;;;;;;5042756;28;20678;-40
2021/12/17 09:36:06;;;;;;;2.90;1.10;;;21.80;57.90;;;;;;5044118;28;20350;-41
2021/12/17 09:38:39;;;;;;;4.05;1.20;;;21.70;57.90;;;;;;5048640;28;20571;-42
2021/12/17 09:41:10;;;;;;;2.10;1.20;;;21.70;58.00;;;;;;5046922;28;20710;-39
2021/12/17 09:43:40;;;;;;;3.05;1.05;;;21.70;57.90;;;;;;5041949;28;20298;-39
2021/12/17 09:46:11;;;;;;;3.35;1.08;;;21.70;57.90;;;;;;5042899;28;20759;-43
2021/12/17 09:48:42;;;;;;;2.75;1.00;;;21.60;57.90;;;;;;5045082;28;20314;-43
2021/12/17 09:51:13;;;;;;;2.80;1.10;;;21.70;58.00;;;;;;5048414;28;20271;-49
2021/12/17 09:53:46;;;;;;;1.42;0.90;;;21.60;57.80;;;;;;5044269;28;20272;-39
2021/12/17 09:56:16;;;;;;;1.42;0.90;;;21.60;57.90;;;;;;5043733;28;20227;-39
2021/12/17 09:58:47;;;;;;;1.10;0.73;;;21.60;57.90;;;;;;5048555;28;20314;-39
2021/12/17 10:01:17;;;;;;;1.77;1.05;;;21.60;57.90;;;;;;5046894;28;20275;-47
2021/12/17 10:03:48;;;;;;;1.38;1.00;;;21.60;57.90;;;;;;5043977;28;20274;-39
2021/12/17 10:06:25;;;;;;;2.05;0.90;;;21.50;57.90;;;;;;5044246;28;20303;-42
2021/12/17 10:08:57;;;;;;;2.60;1.10;;;21.50;57.90;;;;;;5043580;28;20223;-40
2021/12/17 10:11:28;;;;;;;3.15;1.10;;;21.50;57.90;;;;;;5045640;28;20286;-39
2021/12/17 10:13:58;;;;;;;1.52;0.80;;;21.40;57.90;;;;;;5043500;28;20204;-40
2021/12/17 10:16:29;;;;;;;2.53;1.02;;;21.40;57.90;;;;;;5043753;28;20310;-40
2021/12/17 10:18:59;;;;;;;1.08;0.70;;;21.40;57.90;;;;;;5041560;28;20304;-39
2021/12/17 10:21:30;;;;;;;1.15;0.80;;;21.40;58.00;;;;;;5032025;28;20702;-40
2021/12/17 10:24:03;;;;;;;1.88;0.75;;;21.30;57.90;;;;;;5023235;28;20229;-47
2021/12/17 10:26:44;;;;;;;2.08;0.85;;;21.40;58.00;;;;;;5024586;28;20288;-42
2021/12/17 10:29:23;;;;;;;1.33;0.80;;;21.30;58.00;;;;;;5020295;28;20216;-45
2021/12/17 10:32:01;;;;;;;2.40;1.00;;;21.30;58.10;;;;;;5021253;28;20207;-40
2021/12/17 10:34:31;;;;;;;1.23;0.90;;;21.30;57.90;;;;;;5021001;28;20224;-39
2021/12/17 10:37:02;;;;;;;2.45;0.70;;;21.20;57.90;;;;;;5022533;28;20311;-40
2021/12/17 10:39:34;;;;;;;1.45;0.90;;;21.30;58.00;;;;;;5020025;28;20686;-40
2021/12/17 10:42:05;;;;;;;1.77;0.80;;;21.20;57.90;;;;;;5019149;28;20188;-39
2021/12/17 10:44:35;;;;;;;0.80;0.70;;;21.20;58.00;;;;;;5021141;28;20251;-51
2021/12/17 10:47:16;;;;;;;1.20;0.77;;;21.20;58.00;;;;;;5023703;28;20301;-39
2021/12/17 10:55:49;;;;;;;1.90;0.90;;;21.10;58.00;;;;;;5011586;22;20224;-40
2021/12/17 10:58:20;;;;;;;1.35;0.88;;;21.10;58.00;;;;;;4996448;28;20724;-38
2021/12/17 11:00:59;;;;;;;1.73;0.80;;;21.10;58.00;;;;;;4996935;28;20255;-39
2021/12/17 11:03:30;;;;;;;1.73;0.93;;;21.10;58.10;;;;;;4995330;28;20283;-42
2021/12/17 11:16:08;;;;;;;1.77;0.73;;;21.00;58.10;;;;;;4994726;28;20702;-44
2021/12/17 11:18:39;;;;;;;1.35;0.90;;;20.90;58.00;;;;;;5009667;28;20283;-46
2021/12/17 11:21:10;;;;;;;1.52;0.90;;;20.90;58.10;;;;;;5007024;28;20279;-37
2021/12/17 11:23:40;;;;;;;2.45;1.02;;;20.90;58.10;;;;;;5006838;28;21151;-47
2021/12/17 11:26:11;;;;;;;1.55;1.10;;;20.90;58.10;;;;;;5009873;28;20239;-41
2021/12/17 11:28:44;;;;;;;1.92;0.98;;;20.80;58.10;;;;;;5008209;28;20291;-46
2021/12/17 11:31:17;;;;;;;1.77;1.10;;;20.80;58.10;;;;;;5008601;28;20201;-37
2021/12/17 11:33:48;;;;;;;1.50;1.05;;;20.80;58.10;;;;;;5007566;28;20713;-50
2021/12/17 11:36:18;;;;;;;1.77;1.42;;;20.80;58.10;;;;;;5022800;28;20335;-38
2021/12/17 11:38:56;;;;;;;2.60;1.25;;;20.70;58.00;;;;;;5009634;28;20235;-37
2021/12/17 11:41:37;;;;;;;1.33;0.82;;;20.70;58.10;;;;;;5007901;28;20291;-42
2021/12/17 11:44:12;;;;;;;2.92;1.30;;;20.70;58.10;;;;;;5006018;28;20266;-38
2021/12/17 11:46:44;;;;;;;3.00;1.35;;;20.70;58.10;;;;;;5007553;28;20197;-39
2021/12/17 11:49:17;;;;;;;2.35;1.45;;;20.60;58.10;;;;;;4994345;28;20277;-50
2021/12/17 11:51:56;;;;;;;1.70;1.00;;;20.60;58.10;;;;;;5007706;28;20203;-38
2021/12/17 11:54:33;;;;;;;2.05;1.15;;;20.60;58.10;;;;;;5005440;28;20315;-47
2021/12/17 11:57:11;;;;;;;1.73;1.10;;;20.60;58.10;;;;;;5006281;28;20308;-50
2021/12/17 12:03:26;;;;;;;2.22;1.35;;;20.50;58.10;;;;;;4991010;28;20212;-52
2021/12/17 12:05:59;;;;;;;3.47;1.20;;;20.50;58.10;;;;;;5013632;28;20232;-50
2021/12/17 12:08:45;;;;;;;2.30;0.98;;;20.50;58.10;;;;;;5006253;28;20232;-37
2021/12/17 12:11:19;;;;;;;3.50;1.52;;;20.50;58.10;;;;;;5002024;28;20254;-37
2021/12/17 12:13:51;;;;;;;2.28;1.20;;;20.50;58.10;;;;;;5007217;28;20220;-38
2021/12/17 12:23:19;;;;;;;3.33;1.33;;;20.40;58.10;;;;;;5007948;28;20187;-42
2021/12/17 12:26:11;;;;;;;2.28;1.10;;;20.30;58.10;;;;;;5008272;28;20284;-39
2021/12/17 12:29:02;;;;;;;2.75;1.50;;;20.30;58.70;;;;;;5006034;28;20236;-40
2021/12/17 12:32:04;;;;;;;3.40;1.30;;;20.30;58.20;;;;;;5006060;28;20731;-43
2021/12/17 12:37:30;;;;;;;2.53;1.27;;;20.20;58.10;;;;;;5147706;22;20234;-41
2021/12/17 12:40:21;;;;;;;2.17;1.27;;;20.20;58.20;;;;;;5029995;28;20279;-43
2021/12/17 12:42:54;;;;;;;2.13;1.27;;;20.20;58.20;;;;;;5020128;28;20212;-41
2021/12/17 12:45:25;;;;;;;3.58;1.58;;;20.20;58.30;;;;;;5025766;28;20311;-43
2021/12/17 12:48:01;;;;;;;2.70;1.40;;;20.10;58.20;;;;;;5026034;28;20327;-47
2021/12/17 12:50:36;;;;;;;1.70;1.10;;;20.10;58.30;;;;;;5025606;28;20290;-45
2021/12/17 12:53:11;;;;;;;3.15;1.27;;;20.10;58.30;;;;;;5027249;28;20513;-41
2021/12/17 12:55:46;;;;;;;2.35;1.20;;;20.10;58.30;;;;;;5010305;28;20295;-53
2021/12/17 12:58:19;;;;;;;2.00;1.20;;;20.10;58.30;;;;;;5028024;28;20200;-45
2021/12/17 13:00:54;;;;;;;2.20;1.23;;;20.00;58.30;;;;;;5025411;28;20283;-44
2021/12/17 13:03:28;;;;;;;1.75;1.20;;;20.00;58.30;;;;;;5024441;28;20625;-45
2021/12/17 13:05:59;;;;;;;1.77;1.02;;;20.00;58.30;;;;;;5018247;28;20308;-45
2021/12/17 13:08:31;;;;;;;2.85;1.17;;;19.90;58.20;;;;;;5017048;28;20280;-52
2021/12/17 13:11:05;;;;;;;2.78;1.20;;;19.90;58.20;;;;;;5022139;28;20192;-50
2021/12/17 13:13:42;;;;;;;2.85;1.20;;;19.90;58.20;;;;;;5029677;28;20235;-52
2021/12/17 13:16:20;;;;;;;1.38;0.98;;;19.90;58.20;;;;;;5029465;28;20230;-49
2021/12/17 13:21:48;;;;;;;2.75;1.20;;;19.90;58.20;;;;;;5029519;28;20318;-47
2021/12/17 13:24:21;;;;;;;1.70;1.10;;;19.80;58.20;;;;;;5029506;28;20193;-49
2021/12/17 13:26:55;;;;;;;1.98;1.27;;;19.80;58.30;;;;;;5014024;28;20223;-40
2021/12/17 13:29:29;;;;;;;1.80;1.02;;;19.80;58.30;;;;;;5031658;28;20291;-50
2021/12/17 13:32:02;;;;;;;2.17;1.23;;;19.80;58.30;;;;;;5015875;28;20197;-42
2021/12/17 13:34:35;;;;;;;1.75;0.80;;;19.80;58.40;;;;;;5028368;28;20200;-42
2021/12/17 13:37:13;;;;;;;3.40;1.33;;;19.70;58.30;;;;;;5039047;22;20323;-45
2021/12/17 13:39:46;;;;;;;1.77;0.90;;;19.70;58.40;;;;;;5028540;28;20283;-46
2021/12/17 13:42:21;;;;;;;2.22;1.20;;;19.70;58.30;;;;;;5029522;28;20279;-50
2021/12/17 13:44:53;;;;;;;2.15;1.23;;;19.70;58.30;;;;;;5028073;28;20236;-54
2021/12/17 13:47:28;;;;;;;2.42;1.00;;;19.70;58.40;;;;;;5027136;28;20308;-51
2021/12/17 13:50:03;;;;;;;1.48;1.10;;;19.70;58.40;;;;;;5027561;28;20293;-47
2021/12/17 13:52:35;;;;;;;2.33;1.15;;;19.60;58.40;;;;;;5024653;28;20295;-52
2021/12/17 13:55:08;;;;;;;1.55;1.00;;;19.60;58.40;;;;;;5029767;28;20303;-44
2021/12/17 13:57:42;;;;;;;1.73;1.00;;;19.60;58.40;;;;;;5028456;28;20311;-48
2021/12/17 14:00:15;;;;;;;2.08;1.08;;;19.60;58.40;;;;;;5016176;28;20199;-45
2021/12/17 14:02:47;;;;;;;2.08;1.20;;;19.60;58.40;;;;;;5025373;28;20279;-55
2021/12/17 14:05:25;;;;;;;1.38;1.10;;;19.60;58.80;;;;;;5026748;28;20306;-49
2021/12/17 14:07:56;;;;;;;2.08;1.00;;;19.60;58.50;;;;;;5029172;28;20279;-46
2021/12/17 14:10:29;;;;;;;1.88;1.20;;;19.50;58.40;;;;;;5028619;28;20287;-49
2021/12/17 14:13:02;;;;;;;1.50;1.00;;;19.50;58.50;;;;;;5026934;28;20288;-52
2021/12/17 14:15:34;;;;;;;1.95;1.10;;;19.50;58.50;;;;;;5015968;28;20311;-46
2021/12/17 14:18:07;;;;;;;1.20;1.10;;;19.50;58.50;;;;;;5014425;28;20666;-50
2021/12/17 14:20:41;;;;;;;1.52;1.17;;;19.50;58.50;;;;;;5013365;28;20296;-52
2021/12/17 14:23:14;;;;;;;1.13;0.77;;;19.50;58.50;;;;;;5013537;28;20231;-49
2021/12/17 14:25:46;;;;;;;1.33;0.90;;;19.50;58.50;;;;;;5027462;28;20303;-55
2021/12/17 14:28:23;;;;;;;1.05;0.90;;;19.50;58.60;;;;;;5028109;28;20226;-52
2021/12/17 14:31:00;;;;;;;1.27;1.05;;;19.40;58.50;;;;;;5027910;28;20196;-45
2021/12/17 14:33:35;;;;;;;1.38;0.85;;;19.40;58.50;;;;;;5028188;28;20778;-45
2021/12/17 14:36:06;;;;;;;1.67;1.00;;;19.40;58.50;;;;;;5032546;22;20746;-48
2021/12/17 14:38:41;;;;;;;1.45;0.95;;;19.40;58.60;;;;;;5010019;28;20279;-52
2021/12/17 14:41:17;;;;;;;1.75;1.00;;;19.40;58.50;;;;;;5010226;28;20203;-47
2021/12/17 14:43:55;;;;;;;1.40;0.80;;;19.40;58.60;;;;;;5009921;28;20332;-59
2021/12/17 14:46:29;;;;;;;1.70;0.90;;;19.40;58.60;;;;;;4994228;28;20593;-53
2021/12/17 14:49:24;;;;;;;1.33;1.10;;;19.40;58.60;;;;;;5009184;28;20200;-59
2021/12/17 15:00:57;;;;;;;1.80;1.00;;;19.30;58.60;;;;;;5105137;27;20565;-57
2021/12/17 15:03:40;;;;;;;1.55;0.90;;;19.30;58.60;;;;;;5070897;28;20244;-51
2021/12/17 15:06:12;;;;;;;1.50;1.13;;;19.30;58.70;;;;;;5067913;28;20214;-48
2021/12/17 15:08:43;;;;;;;1.33;1.00;;;19.30;58.60;;;;;;5084609;28;20209;-42
2021/12/17 15:11:25;;;;;;;1.10;0.80;;;19.30;58.60;;;;;;5086783;28;20284;-45
2021/12/17 15:13:56;;;;;;;2.55;1.00;;;19.30;58.70;;;;;;5086041;28;20250;-45
2021/12/17 15:16:29;;;;;;;1.33;1.20;;;19.30;58.60;;;;;;5085272;28;20752;-53
2021/12/17 15:18:59;;;;;;;1.17;0.90;;;19.20;58.60;;;;;;5084542;28;20218;-49
2021/12/17 15:21:30;;;;;;;1.17;0.98;;;19.30;58.70;;;;;;5084850;28;20340;-49
2021/12/17 15:24:00;;;;;;;1.48;1.00;;;19.20;58.70;;;;;;5085246;28;20273;-41
2021/12/17 15:26:30;;;;;;;1.05;0.95;;;19.20;58.60;;;;;;5085653;28;20313;-44
2021/12/17 15:29:01;;;;;;;1.20;0.90;;;19.20;58.70;;;;;;5086005;28;20384;-55
2021/12/17 15:31:33;;;;;;;1.35;0.80;;;19.20;58.70;;;;;;5067360;28;20286;-43
2021/12/17 15:34:04;;;;;;;2.30;0.93;;;19.20;58.70;;;;;;5086963;28;20733;-53
2021/12/17 15:36:34;;;;;;;0.98;0.80;;;19.20;58.70;;;;;;5097834;28;20308;-54
2021/12/17 15:39:05;;;;;;;0.98;0.75;;;19.20;58.70;;;;;;5086088;28;20261;-53
2021/12/17 15:41:39;;;;;;;1.77;0.90;;;19.20;58.70;;;;;;5086071;28;20285;-52
2021/12/17 15:44:10;;;;;;;1.10;1.00;;;19.10;58.60;;;;;;5085259;28;20284;-52
2021/12/17 15:46:42;;;;;;;1.38;1.00;;;19.10;58.70;;;;;;5084626;28;20305;-47
2021/12/17 15:49:12;;;;;;;1.75;0.90;;;19.10;58.70;;;;;;5086612;28;20631;-47
2021/12/17 15:51:43;;;;;;;1.42;0.85;;;19.10;58.70;;;;;;5099659;28;20294;-58
2021/12/17 15:54:13;;;;;;;1.02;0.80;;;19.10;58.60;;;;;;5070641;28;20278;-58
2021/12/17 15:56:46;;;;;;;1.17;0.90;;;19.10;58.60;;;;;;5085535;28;20298;-56
2021/12/17 15:59:16;;;;;;;0.93;0.80;;;19.10;58.60;;;;;;5086018;28;20696;-58
2021/12/17 16:01:49;;;;;;;1.50;0.93;;;19.10;58.60;;;;;;5086295;28;20287;-50
2021/12/17 16:04:19;;;;;;;1.35;0.93;;;19.10;58.60;;;;;;5085874;28;20194;-49
2021/12/17 16:06:50;;;;;;;1.67;1.05;;;19.00;58.50;;;;;;5085352;28;20697;-44
2021/12/17 16:09:58;;;;;;;1.52;0.80;;;19.10;58.70;;;;;;5080415;28;20221;-45
2021/12/17 16:21:04;;;;;;;1.33;0.80;;;19.00;58.50;;;;;;5077713;28;20232;-49
2021/12/17 16:23:36;;;;;;;1.15;0.88;;;19.00;58.50;;;;;;5075175;28;20696;-54
2021/12/17 16:26:08;;;;;;;1.90;0.85;;;19.00;58.60;;;;;;5071151;28;20306;-46
2021/12/17 16:28:39;;;;;;;1.40;0.90;;;18.90;58.50;;;;;;5071057;28;20230;-41